sensor_id;sensor_type;location;lat;lon;timestamp;P1;durP1;ratioP1;P2;durP2;ratioP2
1308;SDS011;647;48.840;9.314;2022-12-18T00:00:39;96.45;;;26.13;;
1308;SDS011;647;48.840;9.314;2022-12-18T00:03:06;109.65;;;29.85;;
1308;SDS011;647;48.840;9.314;2022-12-18T00:05:34;114.60;;;31.27;;
1308;SDS011;647;48.840;9.314;2022-12-18T00:08:01;116.60;;;34.08;;
1308;SDS011;647;48.840;9.314;2022-12-18T00:10:28;112.20;;;30.10;;
1308;SDS011;647;48.840;9.314;2022-12-18T00:12:55;105.60;;;28.63;;
1308;SDS011;647;48.840;9.314;2022-12-18T00:15:24;120.00;;;32.35;;
1308;SDS011;647;48.840;9.314;2022-12-18T00:17:51;111.43;;;30.73;;
1308;SDS011;647;48.840;9.314;2022-12-18T00:20:18;109.95;;;29.05;;
1308;SDS011;647;48.840;9.314;2022-12-18T00:22:50;107.25;;;27.48;;
1308;SDS011;647;48.840;9.314;2022-12-18T00:25:17;110.47;;;30.20;;
1308;SDS011;647;48.840;9.314;2022-12-18T00:27:44;113.30;;;32.17;;
1308;SDS011;647;48.840;9.314;2022-12-18T00:30:12;100.97;;;27.02;;
1308;SDS011;647;48.840;9.314;2022-12-18T00:32:40;114.15;;;31.77;;
1308;SDS011;647;48.840;9.314;2022-12-18T00:35:07;115.68;;;33.70;;
1308;SDS011;647;48.840;9.314;2022-12-18T00:37:35;108.65;;;30.67;;
1308;SDS011;647;48.840;9.314;2022-12-18T00:40:02;133.77;;;34.25;;
1308;SDS011;647;48.840;9.314;2022-12-18T00:42:29;105.80;;;28.02;;
1308;SDS011;647;48.840;9.314;2022-12-18T00:45:14;106.68;;;25.88;;
1308;SDS011;647;48.840;9.314;2022-12-18T00:47:43;107.35;;;32.45;;
1308;SDS011;647;48.840;9.314;2022-12-18T00:50:10;108.45;;;31.13;;
1308;SDS011;647;48.840;9.314;2022-12-18T00:52:37;107.45;;;29.65;;
1308;SDS011;647;48.840;9.314;2022-12-18T00:55:04;113.93;;;31.13;;
1308;SDS011;647;48.840;9.314;2022-12-18T00:57:31;107.70;;;28.27;;
1308;SDS011;647;48.840;9.314;2022-12-18T00:59:58;115.28;;;30.98;;
1308;SDS011;647;48.840;9.314;2022-12-18T01:02:26;112.53;;;31.15;;
1308;SDS011;647;48.840;9.314;2022-12-18T01:04:54;98.78;;;27.92;;
1308;SDS011;647;48.840;9.314;2022-12-18T01:07:21;104.30;;;30.17;;
1308;SDS011;647;48.840;9.314;2022-12-18T01:09:48;126.90;;;29.90;;
1308;SDS011;647;48.840;9.314;2022-12-18T01:12:15;107.35;;;31.00;;
1308;SDS011;647;48.840;9.314;2022-12-18T01:14:42;125.15;;;29.60;;
1308;SDS011;647;48.840;9.314;2022-12-18T01:17:09;113.75;;;29.95;;
1308;SDS011;647;48.840;9.314;2022-12-18T01:19:37;104.90;;;29.67;;
1308;SDS011;647;48.840;9.314;2022-12-18T01:22:05;109.40;;;30.63;;
1308;SDS011;647;48.840;9.314;2022-12-18T01:24:32;107.75;;;27.75;;
1308;SDS011;647;48.840;9.314;2022-12-18T01:26:59;109.30;;;27.20;;
1308;SDS011;647;48.840;9.314;2022-12-18T01:29:26;103.63;;;29.50;;
1308;SDS011;647;48.840;9.314;2022-12-18T01:31:54;106.25;;;27.85;;
1308;SDS011;647;48.840;9.314;2022-12-18T01:34:22;105.78;;;30.98;;
1308;SDS011;647;48.840;9.314;2022-12-18T01:36:49;106.00;;;28.48;;
1308;SDS011;647;48.840;9.314;2022-12-18T01:39:18;105.57;;;27.73;;
1308;SDS011;647;48.840;9.314;2022-12-18T01:41:45;106.47;;;29.98;;
1308;SDS011;647;48.840;9.314;2022-12-18T01:47:29;102.18;;;25.42;;
1308;SDS011;647;48.840;9.314;2022-12-18T01:49:57;106.95;;;27.00;;
1308;SDS011;647;48.840;9.314;2022-12-18T01:52:25;108.78;;;29.30;;
1308;SDS011;647;48.840;9.314;2022-12-18T01:54:54;108.22;;;28.00;;
1308;SDS011;647;48.840;9.314;2022-12-18T01:57:22;121.28;;;30.70;;
1308;SDS011;647;48.840;9.314;2022-12-18T01:59:50;113.35;;;30.58;;
1308;SDS011;647;48.840;9.314;2022-12-18T02:02:18;99.70;;;26.13;;
1308;SDS011;647;48.840;9.314;2022-12-18T02:04:46;103.50;;;28.00;;
1308;SDS011;647;48.840;9.314;2022-12-18T02:07:14;102.47;;;27.13;;
1308;SDS011;647;48.840;9.314;2022-12-18T02:09:44;95.47;;;26.42;;
1308;SDS011;647;48.840;9.314;2022-12-18T02:12:16;104.43;;;27.63;;
1308;SDS011;647;48.840;9.314;2022-12-18T02:14:45;107.32;;;27.00;;
1308;SDS011;647;48.840;9.314;2022-12-18T02:17:16;111.40;;;30.70;;
1308;SDS011;647;48.840;9.314;2022-12-18T02:19:47;103.82;;;28.05;;
1308;SDS011;647;48.840;9.314;2022-12-18T02:22:22;100.93;;;27.95;;
1308;SDS011;647;48.840;9.314;2022-12-18T02:24:54;110.22;;;29.25;;
1308;SDS011;647;48.840;9.314;2022-12-18T02:27:25;113.05;;;28.48;;
1308;SDS011;647;48.840;9.314;2022-12-18T02:29:53;108.18;;;28.70;;
1308;SDS011;647;48.840;9.314;2022-12-18T02:32:24;107.45;;;30.20;;
1308;SDS011;647;48.840;9.314;2022-12-18T02:34:52;109.72;;;27.77;;
1308;SDS011;647;48.840;9.314;2022-12-18T02:37:21;111.25;;;30.02;;
1308;SDS011;647;48.840;9.314;2022-12-18T02:39:49;112.63;;;28.60;;
1308;SDS011;647;48.840;9.314;2022-12-18T02:42:16;107.00;;;29.70;;
1308;SDS011;647;48.840;9.314;2022-12-18T02:44:46;110.55;;;28.25;;
1308;SDS011;647;48.840;9.314;2022-12-18T02:47:14;117.95;;;29.95;;
1308;SDS011;647;48.840;9.314;2022-12-18T02:49:44;109.70;;;28.23;;
1308;SDS011;647;48.840;9.314;2022-12-18T02:52:16;113.55;;;30.15;;
1308;SDS011;647;48.840;9.314;2022-12-18T02:54:49;117.75;;;28.50;;
1308;SDS011;647;48.840;9.314;2022-12-18T02:57:19;103.80;;;29.15;;
1308;SDS011;647;48.840;9.314;2022-12-18T02:59:55;110.93;;;31.00;;
1308;SDS011;647;48.840;9.314;2022-12-18T03:02:24;110.50;;;28.60;;
1308;SDS011;647;48.840;9.314;2022-12-18T03:04:55;103.63;;;29.08;;
1308;SDS011;647;48.840;9.314;2022-12-18T03:07:27;109.22;;;27.08;;
1308;SDS011;647;48.840;9.314;2022-12-18T03:09:55;105.85;;;29.05;;
1308;SDS011;647;48.840;9.314;2022-12-18T03:12:23;101.75;;;25.48;;
1308;SDS011;647;48.840;9.314;2022-12-18T03:14:56;118.20;;;30.88;;
1308;SDS011;647;48.840;9.314;2022-12-18T03:17:25;103.70;;;28.15;;
1308;SDS011;647;48.840;9.314;2022-12-18T03:19:54;116.95;;;27.48;;
1308;SDS011;647;48.840;9.314;2022-12-18T03:22:23;118.82;;;29.55;;
1308;SDS011;647;48.840;9.314;2022-12-18T03:24:51;99.13;;;27.27;;
1308;SDS011;647;48.840;9.314;2022-12-18T03:27:19;105.95;;;29.27;;
1308;SDS011;647;48.840;9.314;2022-12-18T03:29:48;108.13;;;29.42;;
1308;SDS011;647;48.840;9.314;2022-12-18T03:32:19;101.25;;;28.58;;
1308;SDS011;647;48.840;9.314;2022-12-18T03:34:48;107.32;;;28.08;;
1308;SDS011;647;48.840;9.314;2022-12-18T03:37:17;107.63;;;26.25;;
1308;SDS011;647;48.840;9.314;2022-12-18T03:39:44;105.07;;;25.77;;
1308;SDS011;647;48.840;9.314;2022-12-18T03:42:13;112.22;;;29.42;;
1308;SDS011;647;48.840;9.314;2022-12-18T03:44:44;108.30;;;26.38;;
1308;SDS011;647;48.840;9.314;2022-12-18T03:47:14;105.32;;;26.60;;
1308;SDS011;647;48.840;9.314;2022-12-18T03:49:45;109.97;;;26.60;;
1308;SDS011;647;48.840;9.314;2022-12-18T03:52:16;107.38;;;28.90;;
1308;SDS011;647;48.840;9.314;2022-12-18T03:54:45;105.45;;;27.75;;
1308;SDS011;647;48.840;9.314;2022-12-18T03:57:13;106.35;;;25.85;;
1308;SDS011;647;48.840;9.314;2022-12-18T03:59:41;107.50;;;28.00;;
1308;SDS011;647;48.840;9.314;2022-12-18T04:02:09;99.93;;;26.27;;
1308;SDS011;647;48.840;9.314;2022-12-18T04:04:37;104.88;;;26.83;;
1308;SDS011;647;48.840;9.314;2022-12-18T04:07:06;104.25;;;27.85;;
1308;SDS011;647;48.840;9.314;2022-12-18T04:09:34;101.07;;;25.60;;
1308;SDS011;647;48.840;9.314;2022-12-18T04:12:02;98.85;;;25.65;;
1308;SDS011;647;48.840;9.314;2022-12-18T04:14:29;112.95;;;29.45;;
1308;SDS011;647;48.840;9.314;2022-12-18T04:17:00;102.90;;;27.92;;
1308;SDS011;647;48.840;9.314;2022-12-18T04:19:27;101.97;;;25.55;;
1308;SDS011;647;48.840;9.314;2022-12-18T04:21:54;105.68;;;26.48;;
1308;SDS011;647;48.840;9.314;2022-12-18T04:24:23;95.15;;;25.15;;
1308;SDS011;647;48.840;9.314;2022-12-18T04:26:50;94.70;;;24.48;;
1308;SDS011;647;48.840;9.314;2022-12-18T04:29:17;101.30;;;25.10;;
1308;SDS011;647;48.840;9.314;2022-12-18T04:31:44;97.95;;;25.48;;
1308;SDS011;647;48.840;9.314;2022-12-18T04:34:11;99.65;;;25.05;;
1308;SDS011;647;48.840;9.314;2022-12-18T04:36:38;106.80;;;27.67;;
1308;SDS011;647;48.840;9.314;2022-12-18T04:39:06;105.30;;;23.83;;
1308;SDS011;647;48.840;9.314;2022-12-18T04:41:34;99.25;;;23.48;;
1308;SDS011;647;48.840;9.314;2022-12-18T04:44:01;96.32;;;24.90;;
1308;SDS011;647;48.840;9.314;2022-12-18T04:46:28;98.05;;;24.27;;
1308;SDS011;647;48.840;9.314;2022-12-18T04:48:55;102.03;;;24.02;;
1308;SDS011;647;48.840;9.314;2022-12-18T04:51:22;103.53;;;25.50;;
1308;SDS011;647;48.840;9.314;2022-12-18T04:53:50;97.88;;;24.60;;
1308;SDS011;647;48.840;9.314;2022-12-18T04:56:17;92.03;;;23.02;;
1308;SDS011;647;48.840;9.314;2022-12-18T04:58:45;97.10;;;23.67;;
1308;SDS011;647;48.840;9.314;2022-12-18T05:01:13;112.72;;;25.98;;
1308;SDS011;647;48.840;9.314;2022-12-18T05:03:41;94.47;;;22.65;;
1308;SDS011;647;48.840;9.314;2022-12-18T05:06:08;99.85;;;23.17;;
1308;SDS011;647;48.840;9.314;2022-12-18T05:08:35;102.93;;;23.73;;
1308;SDS011;647;48.840;9.314;2022-12-18T05:11:03;103.60;;;23.65;;
1308;SDS011;647;48.840;9.314;2022-12-18T05:13:33;100.05;;;22.40;;
1308;SDS011;647;48.840;9.314;2022-12-18T05:16:02;92.88;;;20.70;;
1308;SDS011;647;48.840;9.314;2022-12-18T05:18:30;96.40;;;25.17;;
1308;SDS011;647;48.840;9.314;2022-12-18T05:20:57;102.28;;;27.15;;
1308;SDS011;647;48.840;9.314;2022-12-18T05:23:24;93.68;;;22.25;;
1308;SDS011;647;48.840;9.314;2022-12-18T05:25:52;100.50;;;23.40;;
1308;SDS011;647;48.840;9.314;2022-12-18T05:28:19;96.03;;;23.25;;
1308;SDS011;647;48.840;9.314;2022-12-18T05:30:48;95.00;;;22.92;;
1308;SDS011;647;48.840;9.314;2022-12-18T05:33:17;93.45;;;24.20;;
1308;SDS011;647;48.840;9.314;2022-12-18T05:35:44;93.43;;;25.13;;
1308;SDS011;647;48.840;9.314;2022-12-18T05:38:11;96.18;;;23.60;;
1308;SDS011;647;48.840;9.314;2022-12-18T05:40:41;92.63;;;22.10;;
1308;SDS011;647;48.840;9.314;2022-12-18T05:43:08;99.00;;;23.58;;
1308;SDS011;647;48.840;9.314;2022-12-18T05:45:36;99.40;;;23.75;;
1308;SDS011;647;48.840;9.314;2022-12-18T05:48:04;102.40;;;25.40;;
1308;SDS011;647;48.840;9.314;2022-12-18T05:53:03;97.43;;;23.05;;
1308;SDS011;647;48.840;9.314;2022-12-18T05:55:32;96.95;;;21.15;;
1308;SDS011;647;48.840;9.314;2022-12-18T05:57:59;90.03;;;22.63;;
1308;SDS011;647;48.840;9.314;2022-12-18T06:00:26;91.15;;;21.17;;
1308;SDS011;647;48.840;9.314;2022-12-18T06:02:53;91.47;;;20.73;;
1308;SDS011;647;48.840;9.314;2022-12-18T06:05:21;102.80;;;24.15;;
1308;SDS011;647;48.840;9.314;2022-12-18T06:07:48;95.00;;;23.33;;
1308;SDS011;647;48.840;9.314;2022-12-18T06:10:16;94.68;;;20.70;;
1308;SDS011;647;48.840;9.314;2022-12-18T06:12:43;94.40;;;20.30;;
1308;SDS011;647;48.840;9.314;2022-12-18T06:15:11;95.95;;;21.00;;
1308;SDS011;647;48.840;9.314;2022-12-18T06:17:38;87.80;;;18.88;;
1308;SDS011;647;48.840;9.314;2022-12-18T06:20:05;87.53;;;18.85;;
1308;SDS011;647;48.840;9.314;2022-12-18T06:22:33;84.53;;;17.58;;
1308;SDS011;647;48.840;9.314;2022-12-18T06:25:00;88.45;;;19.17;;
1308;SDS011;647;48.840;9.314;2022-12-18T06:27:30;89.53;;;19.60;;
1308;SDS011;647;48.840;9.314;2022-12-18T06:29:58;91.72;;;21.02;;
1308;SDS011;647;48.840;9.314;2022-12-18T06:32:25;89.43;;;19.05;;
1308;SDS011;647;48.840;9.314;2022-12-18T06:34:52;82.10;;;16.05;;
1308;SDS011;647;48.840;9.314;2022-12-18T06:37:20;92.70;;;20.00;;
1308;SDS011;647;48.840;9.314;2022-12-18T06:39:49;84.95;;;18.15;;
1308;SDS011;647;48.840;9.314;2022-12-18T06:42:16;93.45;;;19.58;;
1308;SDS011;647;48.840;9.314;2022-12-18T06:44:45;107.03;;;25.20;;
1308;SDS011;647;48.840;9.314;2022-12-18T06:47:12;105.05;;;24.40;;
1308;SDS011;647;48.840;9.314;2022-12-18T06:49:39;110.40;;;29.33;;
1308;SDS011;647;48.840;9.314;2022-12-18T06:52:06;98.63;;;23.35;;
1308;SDS011;647;48.840;9.314;2022-12-18T06:54:33;88.25;;;18.45;;
1308;SDS011;647;48.840;9.314;2022-12-18T06:57:00;88.63;;;19.55;;
1308;SDS011;647;48.840;9.314;2022-12-18T06:59:28;88.80;;;18.85;;
1308;SDS011;647;48.840;9.314;2022-12-18T07:01:56;88.93;;;19.83;;
1308;SDS011;647;48.840;9.314;2022-12-18T07:04:27;95.43;;;19.15;;
1308;SDS011;647;48.840;9.314;2022-12-18T07:06:54;97.80;;;20.75;;
1308;SDS011;647;48.840;9.314;2022-12-18T07:09:21;94.85;;;20.40;;
1308;SDS011;647;48.840;9.314;2022-12-18T07:11:48;89.53;;;18.33;;
1308;SDS011;647;48.840;9.314;2022-12-18T07:14:15;88.18;;;18.85;;
1308;SDS011;647;48.840;9.314;2022-12-18T07:16:42;88.25;;;18.40;;
1308;SDS011;647;48.840;9.314;2022-12-18T07:19:10;93.32;;;17.77;;
1308;SDS011;647;48.840;9.314;2022-12-18T07:21:38;92.82;;;18.38;;
1308;SDS011;647;48.840;9.314;2022-12-18T07:24:05;93.18;;;18.67;;
1308;SDS011;647;48.840;9.314;2022-12-18T07:26:33;86.65;;;18.33;;
1308;SDS011;647;48.840;9.314;2022-12-18T07:29:00;94.55;;;22.48;;
1308;SDS011;647;48.840;9.314;2022-12-18T07:31:27;92.72;;;20.38;;
1308;SDS011;647;48.840;9.314;2022-12-18T07:33:54;93.68;;;20.55;;
1308;SDS011;647;48.840;9.314;2022-12-18T07:36:22;93.40;;;18.77;;
1308;SDS011;647;48.840;9.314;2022-12-18T07:38:50;94.40;;;17.75;;
1308;SDS011;647;48.840;9.314;2022-12-18T07:41:18;85.80;;;17.35;;
1308;SDS011;647;48.840;9.314;2022-12-18T07:43:45;90.68;;;19.40;;
1308;SDS011;647;48.840;9.314;2022-12-18T07:46:12;99.20;;;20.75;;
1308;SDS011;647;48.840;9.314;2022-12-18T07:48:40;93.40;;;20.05;;
1308;SDS011;647;48.840;9.314;2022-12-18T07:51:08;102.63;;;22.30;;
1308;SDS011;647;48.840;9.314;2022-12-18T07:53:36;92.85;;;19.10;;
1308;SDS011;647;48.840;9.314;2022-12-18T07:56:04;96.47;;;20.25;;
1308;SDS011;647;48.840;9.314;2022-12-18T07:58:32;91.47;;;19.67;;
1308;SDS011;647;48.840;9.314;2022-12-18T08:01:02;92.57;;;20.73;;
1308;SDS011;647;48.840;9.314;2022-12-18T08:03:29;86.60;;;19.88;;
1308;SDS011;647;48.840;9.314;2022-12-18T08:05:58;93.25;;;20.23;;
1308;SDS011;647;48.840;9.314;2022-12-18T08:08:25;93.45;;;21.45;;
1308;SDS011;647;48.840;9.314;2022-12-18T08:10:53;91.90;;;21.80;;
1308;SDS011;647;48.840;9.314;2022-12-18T08:13:20;91.10;;;21.48;;
1308;SDS011;647;48.840;9.314;2022-12-18T08:15:54;93.75;;;22.90;;
1308;SDS011;647;48.840;9.314;2022-12-18T08:18:22;97.38;;;24.02;;
1308;SDS011;647;48.840;9.314;2022-12-18T08:20:49;93.03;;;19.75;;
1308;SDS011;647;48.840;9.314;2022-12-18T08:23:16;90.32;;;20.45;;
1308;SDS011;647;48.840;9.314;2022-12-18T08:25:43;101.68;;;21.60;;
1308;SDS011;647;48.840;9.314;2022-12-18T08:28:12;97.43;;;22.65;;
1308;SDS011;647;48.840;9.314;2022-12-18T08:30:39;97.68;;;22.50;;
1308;SDS011;647;48.840;9.314;2022-12-18T08:33:07;96.40;;;25.10;;
1308;SDS011;647;48.840;9.314;2022-12-18T08:35:35;88.97;;;22.20;;
1308;SDS011;647;48.840;9.314;2022-12-18T08:38:02;100.22;;;24.50;;
1308;SDS011;647;48.840;9.314;2022-12-18T08:40:29;95.55;;;22.02;;
1308;SDS011;647;48.840;9.314;2022-12-18T08:42:56;99.43;;;23.33;;
1308;SDS011;647;48.840;9.314;2022-12-18T08:45:43;100.55;;;26.58;;
1308;SDS011;647;48.840;9.314;2022-12-18T08:48:10;93.45;;;23.23;;
1308;SDS011;647;48.840;9.314;2022-12-18T08:50:37;101.15;;;25.42;;
1308;SDS011;647;48.840;9.314;2022-12-18T08:53:04;104.50;;;25.08;;
1308;SDS011;647;48.840;9.314;2022-12-18T08:55:31;105.57;;;28.58;;
1308;SDS011;647;48.840;9.314;2022-12-18T08:57:58;109.00;;;28.92;;
1308;SDS011;647;48.840;9.314;2022-12-18T09:00:25;103.78;;;27.58;;
1308;SDS011;647;48.840;9.314;2022-12-18T09:02:54;106.97;;;28.90;;
1308;SDS011;647;48.840;9.314;2022-12-18T09:05:21;97.82;;;26.30;;
1308;SDS011;647;48.840;9.314;2022-12-18T09:07:48;104.63;;;28.95;;
1308;SDS011;647;48.840;9.314;2022-12-18T09:10:15;99.60;;;25.35;;
1308;SDS011;647;48.840;9.314;2022-12-18T09:12:42;98.65;;;26.30;;
1308;SDS011;647;48.840;9.314;2022-12-18T09:15:09;102.85;;;26.52;;
1308;SDS011;647;48.840;9.314;2022-12-18T09:17:36;98.15;;;26.08;;
1308;SDS011;647;48.840;9.314;2022-12-18T09:20:06;112.40;;;29.65;;
1308;SDS011;647;48.840;9.314;2022-12-18T09:22:34;103.93;;;29.30;;
1308;SDS011;647;48.840;9.314;2022-12-18T09:25:01;105.10;;;28.17;;
1308;SDS011;647;48.840;9.314;2022-12-18T09:27:28;104.05;;;26.65;;
1308;SDS011;647;48.840;9.314;2022-12-18T09:29:55;107.15;;;27.85;;
1308;SDS011;647;48.840;9.314;2022-12-18T09:32:22;99.60;;;26.67;;
1308;SDS011;647;48.840;9.314;2022-12-18T09:34:49;99.47;;;27.45;;
1308;SDS011;647;48.840;9.314;2022-12-18T09:37:18;101.20;;;27.80;;
1308;SDS011;647;48.840;9.314;2022-12-18T09:39:45;109.28;;;29.23;;
1308;SDS011;647;48.840;9.314;2022-12-18T09:42:12;101.65;;;27.48;;
1308;SDS011;647;48.840;9.314;2022-12-18T09:44:45;105.47;;;26.67;;
1308;SDS011;647;48.840;9.314;2022-12-18T09:47:14;101.35;;;28.13;;
1308;SDS011;647;48.840;9.314;2022-12-18T09:49:45;101.20;;;25.08;;
1308;SDS011;647;48.840;9.314;2022-12-18T09:52:14;107.90;;;26.75;;
1308;SDS011;647;48.840;9.314;2022-12-18T09:54:45;104.20;;;27.70;;
1308;SDS011;647;48.840;9.314;2022-12-18T09:57:14;100.78;;;27.33;;
1308;SDS011;647;48.840;9.314;2022-12-18T09:59:41;102.25;;;26.88;;
1308;SDS011;647;48.840;9.314;2022-12-18T10:02:13;108.35;;;27.42;;
1308;SDS011;647;48.840;9.314;2022-12-18T10:04:40;105.32;;;28.23;;
1308;SDS011;647;48.840;9.314;2022-12-18T10:07:08;100.82;;;27.00;;
1308;SDS011;647;48.840;9.314;2022-12-18T10:09:37;101.50;;;28.35;;
1308;SDS011;647;48.840;9.314;2022-12-18T10:12:08;106.78;;;29.40;;
1308;SDS011;647;48.840;9.314;2022-12-18T10:14:39;105.07;;;30.17;;
1308;SDS011;647;48.840;9.314;2022-12-18T10:17:11;101.47;;;26.80;;
1308;SDS011;647;48.840;9.314;2022-12-18T10:19:41;99.15;;;27.83;;
1308;SDS011;647;48.840;9.314;2022-12-18T10:22:17;101.97;;;29.90;;
1308;SDS011;647;48.840;9.314;2022-12-18T10:24:47;106.53;;;31.63;;
1308;SDS011;647;48.840;9.314;2022-12-18T10:27:21;99.32;;;27.48;;
1308;SDS011;647;48.840;9.314;2022-12-18T10:29:49;99.97;;;28.38;;
1308;SDS011;647;48.840;9.314;2022-12-18T10:32:17;97.60;;;27.27;;
1308;SDS011;647;48.840;9.314;2022-12-18T10:34:45;91.38;;;25.50;;
1308;SDS011;647;48.840;9.314;2022-12-18T10:37:14;96.77;;;28.50;;
1308;SDS011;647;48.840;9.314;2022-12-18T10:39:42;95.32;;;27.20;;
1308;SDS011;647;48.840;9.314;2022-12-18T10:42:10;92.70;;;26.60;;
1308;SDS011;647;48.840;9.314;2022-12-18T10:44:39;95.40;;;27.00;;
1308;SDS011;647;48.840;9.314;2022-12-18T10:47:09;104.93;;;28.00;;
1308;SDS011;647;48.840;9.314;2022-12-18T10:49:37;101.27;;;26.17;;
1308;SDS011;647;48.840;9.314;2022-12-18T10:52:12;91.63;;;25.47;;
1308;SDS011;647;48.840;9.314;2022-12-18T10:54:39;93.20;;;24.33;;
1308;SDS011;647;48.840;9.314;2022-12-18T10:57:13;94.15;;;25.30;;
1308;SDS011;647;48.840;9.314;2022-12-18T10:59:49;95.28;;;25.40;;
1308;SDS011;647;48.840;9.314;2022-12-18T11:02:24;91.88;;;23.90;;
1308;SDS011;647;48.840;9.314;2022-12-18T11:04:52;90.20;;;20.55;;
1308;SDS011;647;48.840;9.314;2022-12-18T11:07:19;96.07;;;24.08;;
1308;SDS011;647;48.840;9.314;2022-12-18T11:09:46;89.70;;;22.20;;
1308;SDS011;647;48.840;9.314;2022-12-18T11:12:26;91.10;;;23.42;;
1308;SDS011;647;48.840;9.314;2022-12-18T11:14:56;91.68;;;23.25;;
1308;SDS011;647;48.840;9.314;2022-12-18T11:17:25;94.30;;;24.50;;
1308;SDS011;647;48.840;9.314;2022-12-18T11:19:54;92.50;;;22.80;;
1308;SDS011;647;48.840;9.314;2022-12-18T11:22:23;91.05;;;21.85;;
1308;SDS011;647;48.840;9.314;2022-12-18T11:24:52;87.43;;;21.83;;
1308;SDS011;647;48.840;9.314;2022-12-18T11:27:20;91.35;;;21.88;;
1308;SDS011;647;48.840;9.314;2022-12-18T11:29:47;91.18;;;22.75;;
1308;SDS011;647;48.840;9.314;2022-12-18T11:32:22;95.68;;;24.25;;
1308;SDS011;647;48.840;9.314;2022-12-18T11:34:51;93.15;;;23.48;;
1308;SDS011;647;48.840;9.314;2022-12-18T11:37:21;94.20;;;22.90;;
1308;SDS011;647;48.840;9.314;2022-12-18T11:39:49;93.00;;;23.50;;
1308;SDS011;647;48.840;9.314;2022-12-18T11:42:20;90.10;;;23.00;;
1308;SDS011;647;48.840;9.314;2022-12-18T11:44:48;91.45;;;22.58;;
1308;SDS011;647;48.840;9.314;2022-12-18T11:47:20;92.03;;;22.88;;
1308;SDS011;647;48.840;9.314;2022-12-18T11:49:51;90.85;;;22.80;;
1308;SDS011;647;48.840;9.314;2022-12-18T11:52:21;94.55;;;23.58;;
1308;SDS011;647;48.840;9.314;2022-12-18T11:54:50;91.50;;;22.73;;
1308;SDS011;647;48.840;9.314;2022-12-18T11:57:21;94.25;;;24.20;;
1308;SDS011;647;48.840;9.314;2022-12-18T11:59:51;86.70;;;21.30;;
1308;SDS011;647;48.840;9.314;2022-12-18T12:02:24;92.43;;;24.30;;
1308;SDS011;647;48.840;9.314;2022-12-18T12:05:02;90.40;;;22.30;;
1308;SDS011;647;48.840;9.314;2022-12-18T12:07:34;87.03;;;19.73;;
1308;SDS011;647;48.840;9.314;2022-12-18T12:10:09;94.53;;;22.90;;
1308;SDS011;647;48.840;9.314;2022-12-18T12:12:51;89.20;;;23.10;;
1308;SDS011;647;48.840;9.314;2022-12-18T12:15:25;88.20;;;22.35;;
1308;SDS011;647;48.840;9.314;2022-12-18T12:17:55;90.35;;;23.27;;
1308;SDS011;647;48.840;9.314;2022-12-18T12:20:28;94.75;;;23.45;;
1308;SDS011;647;48.840;9.314;2022-12-18T12:22:59;88.22;;;22.00;;
1308;SDS011;647;48.840;9.314;2022-12-18T12:25:30;88.18;;;20.90;;
1308;SDS011;647;48.840;9.314;2022-12-18T12:28:02;87.30;;;20.55;;
1308;SDS011;647;48.840;9.314;2022-12-18T12:30:34;91.53;;;22.17;;
1308;SDS011;647;48.840;9.314;2022-12-18T12:33:05;88.97;;;21.70;;
1308;SDS011;647;48.840;9.314;2022-12-18T12:35:42;87.35;;;20.15;;
1308;SDS011;647;48.840;9.314;2022-12-18T12:38:11;85.95;;;20.83;;
1308;SDS011;647;48.840;9.314;2022-12-18T12:40:39;92.18;;;23.45;;
1308;SDS011;647;48.840;9.314;2022-12-18T12:43:16;84.97;;;21.00;;
1308;SDS011;647;48.840;9.314;2022-12-18T12:45:47;89.07;;;21.17;;
1308;SDS011;647;48.840;9.314;2022-12-18T12:48:16;93.25;;;22.95;;
1308;SDS011;647;48.840;9.314;2022-12-18T12:50:45;89.97;;;22.67;;
1308;SDS011;647;48.840;9.314;2022-12-18T12:53:16;92.63;;;21.85;;
1308;SDS011;647;48.840;9.314;2022-12-18T12:55:46;89.13;;;22.23;;
1308;SDS011;647;48.840;9.314;2022-12-18T12:58:14;91.60;;;22.65;;
1308;SDS011;647;48.840;9.314;2022-12-18T13:00:44;83.60;;;20.00;;
1308;SDS011;647;48.840;9.314;2022-12-18T13:03:15;91.03;;;22.00;;
1308;SDS011;647;48.840;9.314;2022-12-18T13:05:48;89.38;;;22.95;;
1308;SDS011;647;48.840;9.314;2022-12-18T13:08:22;89.18;;;21.40;;
1308;SDS011;647;48.840;9.314;2022-12-18T13:10:49;89.65;;;21.10;;
1308;SDS011;647;48.840;9.314;2022-12-18T13:13:47;89.28;;;21.02;;
1308;SDS011;647;48.840;9.314;2022-12-18T13:16:13;86.40;;;19.25;;
1308;SDS011;647;48.840;9.314;2022-12-18T13:18:48;89.35;;;21.70;;
1308;SDS011;647;48.840;9.314;2022-12-18T13:21:19;87.57;;;22.85;;
1308;SDS011;647;48.840;9.314;2022-12-18T13:23:48;91.75;;;22.25;;
1308;SDS011;647;48.840;9.314;2022-12-18T13:26:28;92.45;;;23.83;;
1308;SDS011;647;48.840;9.314;2022-12-18T13:28:57;93.47;;;24.00;;
1308;SDS011;647;48.840;9.314;2022-12-18T13:34:14;88.82;;;21.67;;
1308;SDS011;647;48.840;9.314;2022-12-18T13:36:44;91.00;;;23.02;;
1308;SDS011;647;48.840;9.314;2022-12-18T13:47:53;88.40;;;21.83;;
1308;SDS011;647;48.840;9.314;2022-12-18T13:50:22;89.82;;;22.38;;
1308;SDS011;647;48.840;9.314;2022-12-18T13:52:53;89.70;;;21.35;;
1308;SDS011;647;48.840;9.314;2022-12-18T13:55:20;90.55;;;23.33;;
1308;SDS011;647;48.840;9.314;2022-12-18T13:57:48;91.45;;;21.58;;
1308;SDS011;647;48.840;9.314;2022-12-18T14:00:25;89.05;;;20.80;;
1308;SDS011;647;48.840;9.314;2022-12-18T14:02:53;89.85;;;21.13;;
1308;SDS011;647;48.840;9.314;2022-12-18T14:05:21;90.55;;;22.20;;
1308;SDS011;647;48.840;9.314;2022-12-18T14:07:49;94.70;;;22.85;;
1308;SDS011;647;48.840;9.314;2022-12-18T14:10:17;90.13;;;21.55;;
1308;SDS011;647;48.840;9.314;2022-12-18T14:12:44;85.80;;;22.42;;
1308;SDS011;647;48.840;9.314;2022-12-18T14:15:27;94.28;;;21.75;;
1308;SDS011;647;48.840;9.314;2022-12-18T14:17:58;92.25;;;21.48;;
1308;SDS011;647;48.840;9.314;2022-12-18T14:20:27;96.83;;;27.13;;
1308;SDS011;647;48.840;9.314;2022-12-18T14:22:54;92.47;;;24.52;;
1308;SDS011;647;48.840;9.314;2022-12-18T14:25:24;92.80;;;25.15;;
1308;SDS011;647;48.840;9.314;2022-12-18T14:27:52;93.78;;;22.92;;
1308;SDS011;647;48.840;9.314;2022-12-18T14:30:23;87.38;;;20.98;;
1308;SDS011;647;48.840;9.314;2022-12-18T14:33:03;93.53;;;21.73;;
1308;SDS011;647;48.840;9.314;2022-12-18T14:35:31;92.68;;;21.48;;
1308;SDS011;647;48.840;9.314;2022-12-18T14:38:11;97.40;;;23.90;;
1308;SDS011;647;48.840;9.314;2022-12-18T14:40:39;99.20;;;22.83;;
1308;SDS011;647;48.840;9.314;2022-12-18T14:43:08;95.78;;;22.98;;
1308;SDS011;647;48.840;9.314;2022-12-18T14:45:35;95.43;;;21.77;;
1308;SDS011;647;48.840;9.314;2022-12-18T14:48:05;93.57;;;23.50;;
1308;SDS011;647;48.840;9.314;2022-12-18T14:50:32;92.95;;;21.23;;
1308;SDS011;647;48.840;9.314;2022-12-18T14:53:00;96.68;;;23.73;;
1308;SDS011;647;48.840;9.314;2022-12-18T14:55:27;90.63;;;22.73;;
1308;SDS011;647;48.840;9.314;2022-12-18T14:57:55;98.75;;;23.08;;
1308;SDS011;647;48.840;9.314;2022-12-18T15:00:23;94.00;;;22.30;;
1308;SDS011;647;48.840;9.314;2022-12-18T15:02:51;91.78;;;21.40;;
1308;SDS011;647;48.840;9.314;2022-12-18T15:05:20;91.80;;;22.45;;
1308;SDS011;647;48.840;9.314;2022-12-18T15:07:48;97.57;;;20.83;;
1308;SDS011;647;48.840;9.314;2022-12-18T15:10:16;97.50;;;23.50;;
1308;SDS011;647;48.840;9.314;2022-12-18T15:12:44;92.88;;;23.15;;
1308;SDS011;647;48.840;9.314;2022-12-18T15:17:59;98.20;;;26.77;;
1308;SDS011;647;48.840;9.314;2022-12-18T15:20:26;92.03;;;23.60;;
1308;SDS011;647;48.840;9.314;2022-12-18T15:22:54;99.45;;;25.45;;
1308;SDS011;647;48.840;9.314;2022-12-18T15:25:24;101.82;;;25.40;;